sensor_id;sensor_type;location;lat;lon;timestamp;pressure;altitude;pressure_sealevel;temperature;humidity
76590;BME280;65471;55.908;37.880;2023-03-01T00:01:17;98893.25;;;-4.60;62.16
76590;BME280;65471;55.908;37.880;2023-03-01T00:03:44;98915.25;;;-4.51;61.87
76590;BME280;65471;55.908;37.880;2023-03-01T00:06:11;98883.72;;;-4.79;62.20
76590;BME280;65471;55.908;37.880;2023-03-01T00:08:39;98905.75;;;-4.70;62.16
76590;BME280;65471;55.908;37.880;2023-03-01T00:11:18;98918.06;;;-4.71;62.94
76590;BME280;65471;55.908;37.880;2023-03-01T00:13:47;98906.72;;;-4.71;62.00
76590;BME280;65471;55.908;37.880;2023-03-01T00:16:17;98907.38;;;-4.69;62.64
76590;BME280;65471;55.908;37.880;2023-03-01T00:18:45;98909.03;;;-4.68;61.68
76590;BME280;65471;55.908;37.880;2023-03-01T00:21:12;98908.66;;;-4.73;61.71
76590;BME280;65471;55.908;37.880;2023-03-01T00:23:39;98911.59;;;-4.76;62.65
76590;BME280;65471;55.908;37.880;2023-03-01T00:26:08;98911.59;;;-4.76;62.08
76590;BME280;65471;55.908;37.880;2023-03-01T00:28:36;98901.59;;;-4.73;62.10
76590;BME280;65471;55.908;37.880;2023-03-01T00:31:04;98908.66;;;-4.73;62.22
76590;BME280;65471;55.908;37.880;2023-03-01T00:33:31;98908.31;;;-4.78;61.35
76590;BME280;65471;55.908;37.880;2023-03-01T00:35:59;98912.25;;;-4.82;62.34
76590;BME280;65471;55.908;37.880;2023-03-01T00:38:26;98913.22;;;-4.83;61.71
76590;BME280;65471;55.908;37.880;2023-03-01T00:40:53;98900.19;;;-4.85;61.93
76590;BME280;65471;55.908;37.880;2023-03-01T00:43:22;98908.56;;;-4.90;62.49
76590;BME280;65471;55.908;37.880;2023-03-01T00:45:49;98912.47;;;-4.94;62.64
76590;BME280;65471;55.908;37.880;2023-03-01T00:48:16;98910.00;;;-4.95;62.13
76590;BME280;65471;55.908;37.880;2023-03-01T00:50:43;98912.94;;;-4.98;61.90
76590;BME280;65471;55.908;37.880;2023-03-01T00:53:10;98904.50;;;-5.02;61.46
76590;BME280;65471;55.908;37.880;2023-03-01T00:55:37;98900.38;;;-5.05;62.09
76590;BME280;65471;55.908;37.880;2023-03-01T00:58:04;98903.84;;;-5.04;61.38
76590;BME280;65471;55.908;37.880;2023-03-01T01:00:31;98901.28;;;-5.14;61.56
76590;BME280;65471;55.908;37.880;2023-03-01T01:02:58;98910.00;;;-5.13;61.60
76590;BME280;65471;55.908;37.880;2023-03-01T01:05:25;98903.94;;;-5.14;62.19
76590;BME280;65471;55.908;37.880;2023-03-01T01:07:52;98898.03;;;-5.08;61.66
76590;BME280;65471;55.908;37.880;2023-03-01T01:10:19;98910.75;;;-5.03;61.43
76590;BME280;65471;55.908;37.880;2023-03-01T01:12:47;98911.06;;;-5.06;61.40
76590;BME280;65471;55.908;37.880;2023-03-01T01:15:14;98897.00;;;-5.15;61.69
76590;BME280;65471;55.908;37.880;2023-03-01T01:17:43;98903.38;;;-5.17;61.90
76590;BME280;65471;55.908;37.880;2023-03-01T01:20:10;98909.50;;;-5.17;62.06
76590;BME280;65471;55.908;37.880;2023-03-01T01:22:37;98903.63;;;-5.11;61.67
76590;BME280;65471;55.908;37.880;2023-03-01T01:25:04;98908.88;;;-5.11;62.29
76590;BME280;65471;55.908;37.880;2023-03-01T01:27:31;98897.53;;;-5.11;61.37
76590;BME280;65471;55.908;37.880;2023-03-01T01:29:58;98905.06;;;-5.16;62.14
76590;BME280;65471;55.908;37.880;2023-03-01T01:32:25;98914.94;;;-5.18;62.35
76590;BME280;65471;55.908;37.880;2023-03-01T01:34:52;98911.84;;;-5.14;61.69
76590;BME280;65471;55.908;37.880;2023-03-01T01:37:19;98900.47;;;-5.14;61.64
76590;BME280;65471;55.908;37.880;2023-03-01T01:39:46;98886.53;;;-5.25;61.88
76590;BME280;65471;55.908;37.880;2023-03-01T01:42:17;98911.22;;;-5.08;61.75
76590;BME280;65471;55.908;37.880;2023-03-01T01:44:46;98916.19;;;-5.05;62.64
76590;BME280;65471;55.908;37.880;2023-03-01T01:47:19;98903.53;;;-5.01;61.69
76590;BME280;65471;55.908;37.880;2023-03-01T01:49:51;98912.25;;;-5.00;61.69
76590;BME280;65471;55.908;37.880;2023-03-01T01:52:29;98917.38;;;-4.99;62.42
76590;BME280;65471;55.908;37.880;2023-03-01T01:55:03;98917.38;;;-4.99;61.95
76590;BME280;65471;55.908;37.880;2023-03-01T01:57:41;98921.53;;;-4.96;61.97
76590;BME280;65471;55.908;37.880;2023-03-01T02:00:23;98920.31;;;-5.02;61.42
76590;BME280;65471;55.908;37.880;2023-03-01T02:03:01;98917.03;;;-5.04;61.84
76590;BME280;65471;55.908;37.880;2023-03-01T02:05:38;98917.22;;;-4.97;62.06
76590;BME280;65471;55.908;37.880;2023-03-01T02:08:08;98923.66;;;-5.00;61.90
76590;BME280;65471;55.908;37.880;2023-03-01T02:10:36;98912.56;;;-5.04;61.76
76590;BME280;65471;55.908;37.880;2023-03-01T02:13:04;98913.25;;;-5.01;61.83
76590;BME280;65471;55.908;37.880;2023-03-01T02:15:35;98892.69;;;-5.16;62.17
76590;BME280;65471;55.908;37.880;2023-03-01T02:18:04;98914.38;;;-5.04;62.12
76590;BME280;65471;55.908;37.880;2023-03-01T02:20:36;98917.63;;;-5.10;62.10
76590;BME280;65471;55.908;37.880;2023-03-01T02:23:07;98919.59;;;-5.12;61.53
76590;BME280;65471;55.908;37.880;2023-03-01T02:25:49;98919.75;;;-5.14;61.96
76590;BME280;65471;55.908;37.880;2023-03-01T02:30:51;98923.56;;;-5.08;61.60
76590;BME280;65471;55.908;37.880;2023-03-01T02:33:38;98913.03;;;-5.26;61.63
76590;BME280;65471;55.908;37.880;2023-03-01T02:36:08;98902.31;;;-5.33;61.56
76590;BME280;65471;55.908;37.880;2023-03-01T02:38:36;98933.97;;;-5.25;62.52
76590;BME280;65471;55.908;37.880;2023-03-01T02:41:05;98922.38;;;-5.32;62.34
76590;BME280;65471;55.908;37.880;2023-03-01T02:43:34;98926.22;;;-5.26;62.21
76590;BME280;65471;55.908;37.880;2023-03-01T02:46:17;98928.50;;;-5.31;61.94
76590;BME280;65471;55.908;37.880;2023-03-01T02:48:51;98930.44;;;-5.33;62.26
76590;BME280;65471;55.908;37.880;2023-03-01T02:52:01;98932.56;;;-5.37;62.75
76590;BME280;65471;55.908;37.880;2023-03-01T02:57:08;98940.22;;;-5.44;62.54
76590;BME280;65471;55.908;37.880;2023-03-01T02:59:36;98932.63;;;-5.47;62.58
76590;BME280;65471;55.908;37.880;2023-03-01T03:02:18;98937.75;;;-5.45;62.42
76590;BME280;65471;55.908;37.880;2023-03-01T03:04:46;98940.81;;;-5.50;62.06
76590;BME280;65471;55.908;37.880;2023-03-01T03:07:13;98934.19;;;-5.54;62.15
76590;BME280;65471;55.908;37.880;2023-03-01T03:09:40;98934.34;;;-5.56;62.82
76590;BME280;65471;55.908;37.880;2023-03-01T03:12:07;98935.00;;;-5.53;62.94
76590;BME280;65471;55.908;37.880;2023-03-01T03:14:34;98938.78;;;-5.56;62.80
76590;BME280;65471;55.908;37.880;2023-03-01T03:17:01;98940.75;;;-5.58;62.46
76590;BME280;65471;55.908;37.880;2023-03-01T03:19:32;98938.69;;;-5.64;62.43
76590;BME280;65471;55.908;37.880;2023-03-01T03:21:59;98934.97;;;-5.72;63.18
76590;BME280;65471;55.908;37.880;2023-03-01T03:24:26;98935.13;;;-5.73;62.63
76590;BME280;65471;55.908;37.880;2023-03-01T03:27:05;98939.44;;;-5.72;62.88
76590;BME280;65471;55.908;37.880;2023-03-01T03:29:32;98944.84;;;-5.74;63.29
76590;BME280;65471;55.908;37.880;2023-03-01T03:31:59;98940.69;;;-5.76;63.44
76590;BME280;65471;55.908;37.880;2023-03-01T03:34:26;98956.94;;;-5.81;63.48
76590;BME280;65471;55.908;37.880;2023-03-01T03:36:56;98923.97;;;-6.03;62.82
76590;BME280;65471;55.908;37.880;2023-03-01T03:39:26;98947.44;;;-5.92;63.41
76590;BME280;65471;55.908;37.880;2023-03-01T03:41:53;98936.72;;;-5.98;63.53
76590;BME280;65471;55.908;37.880;2023-03-01T03:44:21;98952.53;;;-5.90;63.66
76590;BME280;65471;55.908;37.880;2023-03-01T03:46:47;98952.50;;;-5.98;63.80
76590;BME280;65471;55.908;37.880;2023-03-01T03:49:14;98961.03;;;-5.96;63.45
76590;BME280;65471;55.908;37.880;2023-03-01T03:51:41;98942.47;;;-6.13;63.69
76590;BME280;65471;55.908;37.880;2023-03-01T03:54:08;98962.78;;;-6.05;63.19
76590;BME280;65471;55.908;37.880;2023-03-01T03:56:35;98956.25;;;-6.01;63.34
76590;BME280;65471;55.908;37.880;2023-03-01T03:59:01;98943.09;;;-6.01;63.34
76590;BME280;65471;55.908;37.880;2023-03-01T04:01:28;98948.06;;;-5.98;63.31
76590;BME280;65471;55.908;37.880;2023-03-01T04:03:55;98955.94;;;-5.98;63.16
76590;BME280;65471;55.908;37.880;2023-03-01T04:06:22;98958.03;;;-6.01;63.88
76590;BME280;65471;55.908;37.880;2023-03-01T04:08:49;98951.94;;;-6.02;63.83
76590;BME280;65471;55.908;37.880;2023-03-01T04:11:20;98928.44;;;-6.13;63.79
76590;BME280;65471;55.908;37.880;2023-03-01T04:13:55;98951.22;;;-5.94;63.59
76590;BME280;65471;55.908;37.880;2023-03-01T04:16:24;98953.00;;;-5.95;63.94
76590;BME280;65471;55.908;37.880;2023-03-01T04:18:51;98962.03;;;-5.97;64.11
76590;BME280;65471;55.908;37.880;2023-03-01T04:21:20;98967.44;;;-5.99;63.68
76590;BME280;65471;55.908;37.880;2023-03-01T04:23:47;98967.44;;;-5.99;64.14
76590;BME280;65471;55.908;37.880;2023-03-01T04:26:14;98964.81;;;-5.99;64.43
76590;BME280;65471;55.908;37.880;2023-03-01T04:28:42;98972.38;;;-5.96;64.10
76590;BME280;65471;55.908;37.880;2023-03-01T04:31:17;98970.22;;;-6.00;64.28
76590;BME280;65471;55.908;37.880;2023-03-01T04:33:47;98971.47;;;-6.04;64.09
76590;BME280;65471;55.908;37.880;2023-03-01T04:36:16;98977.19;;;-6.09;64.45
76590;BME280;65471;55.908;37.880;2023-03-01T04:38:43;98971.09;;;-6.10;64.56
76590;BME280;65471;55.908;37.880;2023-03-01T04:41:16;98951.19;;;-6.22;64.17
76590;BME280;65471;55.908;37.880;2023-03-01T04:43:44;98977.75;;;-6.05;64.25
76590;BME280;65471;55.908;37.880;2023-03-01T04:46:16;98975.66;;;-6.12;63.97
76590;BME280;65471;55.908;37.880;2023-03-01T04:48:45;98986.03;;;-6.10;64.37
76590;BME280;65471;55.908;37.880;2023-03-01T04:51:14;98963.41;;;-6.21;64.55
76590;BME280;65471;55.908;37.880;2023-03-01T04:53:42;98979.53;;;-6.06;64.76
76590;BME280;65471;55.908;37.880;2023-03-01T04:56:10;98982.31;;;-6.08;64.06
76590;BME280;65471;55.908;37.880;2023-03-01T04:58:36;98979.00;;;-6.10;64.39
76590;BME280;65471;55.908;37.880;2023-03-01T05:01:11;98990.63;;;-6.12;64.08
76590;BME280;65471;55.908;37.880;2023-03-01T05:03:46;98983.34;;;-6.18;64.35
76590;BME280;65471;55.908;37.880;2023-03-01T05:06:15;98983.09;;;-6.35;64.65
76590;BME280;65471;55.908;37.880;2023-03-01T05:08:42;99005.06;;;-6.26;64.59
76590;BME280;65471;55.908;37.880;2023-03-01T05:11:10;99010.59;;;-6.19;65.00
76590;BME280;65471;55.908;37.880;2023-03-01T05:13:38;98994.69;;;-6.18;64.32
76590;BME280;65471;55.908;37.880;2023-03-01T05:16:06;99002.69;;;-6.10;64.47
76590;BME280;65471;55.908;37.880;2023-03-01T05:18:38;99007.69;;;-6.16;64.62
76590;BME280;65471;55.908;37.880;2023-03-01T05:21:08;99002.31;;;-6.25;64.58
76590;BME280;65471;55.908;37.880;2023-03-01T05:23:35;99012.16;;;-6.27;64.71
76590;BME280;65471;55.908;37.880;2023-03-01T05:26:04;99011.03;;;-6.24;64.71
76590;BME280;65471;55.908;37.880;2023-03-01T05:28:36;99010.47;;;-6.28;65.19
76590;BME280;65471;55.908;37.880;2023-03-01T05:31:04;98989.59;;;-6.39;64.79
76590;BME280;65471;55.908;37.880;2023-03-01T05:33:37;99002.72;;;-6.19;64.48
76590;BME280;65471;55.908;37.880;2023-03-01T05:36:05;99011.56;;;-6.20;64.77
76590;BME280;65471;55.908;37.880;2023-03-01T05:38:33;99005.50;;;-6.21;64.76
76590;BME280;65471;55.908;37.880;2023-03-01T05:41:00;99026.78;;;-6.14;65.46
76590;BME280;65471;55.908;37.880;2023-03-01T05:43:30;99012.34;;;-6.00;65.37
76590;BME280;65471;55.908;37.880;2023-03-01T05:46:00;99017.38;;;-5.89;64.97
76590;BME280;65471;55.908;37.880;2023-03-01T05:48:27;99020.78;;;-5.79;64.88
76590;BME280;65471;55.908;37.880;2023-03-01T05:50:54;99022.44;;;-5.68;65.23
76590;BME280;65471;55.908;37.880;2023-03-01T05:53:20;99021.81;;;-5.62;64.73
76590;BME280;65471;55.908;37.880;2023-03-01T05:55:48;99022.91;;;-5.55;65.09
76590;BME280;65471;55.908;37.880;2023-03-01T05:58:19;99017.06;;;-5.48;64.40
76590;BME280;65471;55.908;37.880;2023-03-01T06:00:47;99021.34;;;-5.47;64.59
76590;BME280;65471;55.908;37.880;2023-03-01T06:03:16;99026.19;;;-5.43;64.42
76590;BME280;65471;55.908;37.880;2023-03-01T06:05:43;99025.59;;;-5.37;64.44
76590;BME280;65471;55.908;37.880;2023-03-01T06:08:12;99029.44;;;-5.31;64.70
76590;BME280;65471;55.908;37.880;2023-03-01T06:10:39;99020.56;;;-5.30;64.14
76590;BME280;65471;55.908;37.880;2023-03-01T06:13:07;99034.03;;;-5.15;64.20
76590;BME280;65471;55.908;37.880;2023-03-01T06:15:34;99037.38;;;-5.13;64.25
76590;BME280;65471;55.908;37.880;2023-03-01T06:18:01;99033.06;;;-5.14;63.90
76590;BME280;65471;55.908;37.880;2023-03-01T06:20:28;99045.94;;;-5.11;64.15
76590;BME280;65471;55.908;37.880;2023-03-01T06:22:56;99041.06;;;-5.06;64.23
76590;BME280;65471;55.908;37.880;2023-03-01T06:25:25;99043.56;;;-5.04;64.67
76590;BME280;65471;55.908;37.880;2023-03-01T06:27:53;99047.56;;;-5.00;64.53
76590;BME280;65471;55.908;37.880;2023-03-01T06:30:21;99042.63;;;-4.95;64.30
76590;BME280;65471;55.908;37.880;2023-03-01T06:32:49;99046.31;;;-4.88;63.90
76590;BME280;65471;55.908;37.880;2023-03-01T06:35:17;99045.59;;;-4.80;64.13
76590;BME280;65471;55.908;37.880;2023-03-01T06:37:45;99042.25;;;-4.82;63.49
76590;BME280;65471;55.908;37.880;2023-03-01T06:40:13;99051.00;;;-4.63;64.07
76590;BME280;65471;55.908;37.880;2023-03-01T06:42:42;99058.31;;;-4.57;63.63
76590;BME280;65471;55.908;37.880;2023-03-01T06:45:09;99060.66;;;-4.54;63.47
76590;BME280;65471;55.908;37.880;2023-03-01T06:47:37;99064.34;;;-4.47;63.63
76590;BME280;65471;55.908;37.880;2023-03-01T06:50:04;99065.16;;;-4.46;63.61
76590;BME280;65471;55.908;37.880;2023-03-01T06:52:31;99060.72;;;-4.46;63.80
76590;BME280;65471;55.908;37.880;2023-03-01T06:54:58;99066.19;;;-4.39;63.89
76590;BME280;65471;55.908;37.880;2023-03-01T06:57:24;99070.88;;;-4.33;63.78
76590;BME280;65471;55.908;37.880;2023-03-01T06:59:51;99068.81;;;-4.21;63.95
76590;BME280;65471;55.908;37.880;2023-03-01T07:02:18;99062.59;;;-4.12;63.08
76590;BME280;65471;55.908;37.880;2023-03-01T07:04:45;99078.31;;;-4.10;63.65
76590;BME280;65471;55.908;37.880;2023-03-01T07:07:12;99077.38;;;-4.01;63.50
76590;BME280;65471;55.908;37.880;2023-03-01T07:09:38;99076.28;;;-3.90;62.59
76590;BME280;65471;55.908;37.880;2023-03-01T07:12:06;99079.66;;;-3.80;62.93
76590;BME280;65471;55.908;37.880;2023-03-01T07:14:33;99091.41;;;-3.74;62.54
76590;BME280;65471;55.908;37.880;2023-03-01T07:17:00;99094.69;;;-3.72;62.88
76590;BME280;65471;55.908;37.880;2023-03-01T07:19:26;99096.31;;;-3.79;62.50
76590;BME280;65471;55.908;37.880;2023-03-01T07:21:53;99082.50;;;-4.00;61.92
76590;BME280;65471;55.908;37.880;2023-03-01T07:24:22;99096.00;;;-4.03;62.62
76590;BME280;65471;55.908;37.880;2023-03-01T07:26:50;99097.81;;;-4.03;62.49
76590;BME280;65471;55.908;37.880;2023-03-01T07:29:17;99093.78;;;-3.89;62.47
76590;BME280;65471;55.908;37.880;2023-03-01T07:31:44;99094.34;;;-3.77;62.42
76590;BME280;65471;55.908;37.880;2023-03-01T07:34:11;99098.34;;;-3.73;61.78
76590;BME280;65471;55.908;37.880;2023-03-01T07:36:38;99107.91;;;-3.72;62.17
76590;BME280;65471;55.908;37.880;2023-03-01T07:39:06;99095.34;;;-3.78;62.20
76590;BME280;65471;55.908;37.880;2023-03-01T07:41:33;99100.84;;;-3.72;61.60
76590;BME280;65471;55.908;37.880;2023-03-01T07:43:59;99106.44;;;-3.67;61.76
76590;BME280;65471;55.908;37.880;2023-03-01T07:46:26;99102.19;;;-3.68;61.53
76590;BME280;65471;55.908;37.880;2023-03-01T07:48:53;99101.69;;;-3.63;61.40
76590;BME280;65471;55.908;37.880;2023-03-01T07:51:20;99105.41;;;-3.48;61.60
76590;BME280;65471;55.908;37.880;2023-03-01T07:53:48;99092.69;;;-3.44;61.40
76590;BME280;65471;55.908;37.880;2023-03-01T07:56:15;99075.31;;;-3.55;61.24
76590;BME280;65471;55.908;37.880;2023-03-01T07:58:47;99101.81;;;-3.38;61.10
76590;BME280;65471;55.908;37.880;2023-03-01T08:01:18;99103.75;;;-3.49;61.41
76590;BME280;65471;55.908;37.880;2023-03-01T08:03:46;99108.66;;;-3.54;61.36
76590;BME280;65471;55.908;37.880;2023-03-01T08:06:14;99083.53;;;-3.66;61.51
76590;BME280;65471;55.908;37.880;2023-03-01T08:08:41;99110.50;;;-3.54;61.96
76590;BME280;65471;55.908;37.880;2023-03-01T08:11:13;99111.47;;;-3.55;62.25
76590;BME280;65471;55.908;37.880;2023-03-01T08:13:41;99109.03;;;-3.49;61.45
76590;BME280;65471;55.908;37.880;2023-03-01T08:16:11;99111.38;;;-3.45;61.24
76590;BME280;65471;55.908;37.880;2023-03-01T08:18:39;99113.19;;;-3.38;61.64
76590;BME280;65471;55.908;37.880;2023-03-01T08:21:10;99110.09;;;-3.33;61.16
76590;BME280;65471;55.908;37.880;2023-03-01T08:23:38;99103.97;;;-3.34;61.03
76590;BME280;65471;55.908;37.880;2023-03-01T08:26:16;99121.00;;;-3.36;61.06
76590;BME280;65471;55.908;37.880;2023-03-01T08:28:46;99107.31;;;-3.32;61.74
76590;BME280;65471;55.908;37.880;2023-03-01T08:31:25;99125.28;;;-3.35;61.86
76590;BME280;65471;55.908;37.880;2023-03-01T08:33:54;99125.28;;;-3.35;61.81
76590;BME280;65471;55.908;37.880;2023-03-01T08:36:31;99123.81;;;-3.30;61.59
76590;BME280;65471;55.908;37.880;2023-03-01T08:39:01;99119.72;;;-3.24;61.57
76590;BME280;65471;55.908;37.880;2023-03-01T08:41:28;99133.50;;;-3.12;61.44
76590;BME280;65471;55.908;37.880;2023-03-01T08:43:55;99140.09;;;-3.08;60.86
76590;BME280;65471;55.908;37.880;2023-03-01T08:46:33;99134.69;;;-3.06;61.05
76590;BME280;65471;55.908;37.880;2023-03-01T08:49:06;99128.38;;;-3.05;61.00
76590;BME280;65471;55.908;37.880;2023-03-01T08:51:34;99138.63;;;-3.02;61.39
76590;BME280;65471;55.908;37.880;2023-03-01T08:54:09;99137.97;;;-3.04;61.77
76590;BME280;65471;55.908;37.880;2023-03-01T08:56:40;99134.84;;;-3.00;61.00
76590;BME280;65471;55.908;37.880;2023-03-01T08:59:07;99115.13;;;-3.14;61.20
76590;BME280;65471;55.908;37.880;2023-03-01T09:01:34;99133.03;;;-2.99;61.18
76590;BME280;65471;55.908;37.880;2023-03-01T09:04:00;99133.53;;;-2.96;61.47
76590;BME280;65471;55.908;37.880;2023-03-01T09:06:30;99142.50;;;-2.88;61.21
76590;BME280;65471;55.908;37.880;2023-03-01T09:08:58;99138.91;;;-2.79;60.84
76590;BME280;65471;55.908;37.880;2023-03-01T09:11:26;99131.13;;;-2.64;60.84
76590;BME280;65471;55.908;37.880;2023-03-01T09:13:54;99124.56;;;-2.52;61.11
76590;BME280;65471;55.908;37.880;2023-03-01T09:16:22;99127.06;;;-2.42;60.88
76590;BME280;65471;55.908;37.880;2023-03-01T09:18:54;99119.25;;;-2.35;60.88
76590;BME280;65471;55.908;37.880;2023-03-01T09:21:22;99136.66;;;-2.24;60.62
76590;BME280;65471;55.908;37.880;2023-03-01T09:24:12;99135.84;;;-2.25;60.61
76590;BME280;65471;55.908;37.880;2023-03-01T09:26:39;99145.09;;;-2.13;60.41
76590;BME280;65471;55.908;37.880;2023-03-01T09:29:06;99143.28;;;-2.12;60.43
76590;BME280;65471;55.908;37.880;2023-03-01T09:31:33;99134.66;;;-2.14;60.25
76590;BME280;65471;55.908;37.880;2023-03-01T09:34:00;99135.50;;;-1.97;60.38
76590;BME280;65471;55.908;37.880;2023-03-01T09:36:26;99124.53;;;-1.69;60.55
76590;BME280;65471;55.908;37.880;2023-03-01T09:38:53;99117.84;;;-1.41;59.56
76590;BME280;65471;55.908;37.880;2023-03-01T09:46:43;99127.50;;;-0.22;59.62
76590;BME280;65471;55.908;37.880;2023-03-01T09:49:22;99119.28;;;1.00;57.27
76590;BME280;65471;55.908;37.880;2023-03-01T09:54:55;99124.34;;;1.68;53.70
76590;BME280;65471;55.908;37.880;2023-03-01T09:57:36;99123.88;;;1.65;53.86
76590;BME280;65471;55.908;37.880;2023-03-01T10:03:22;99132.59;;;1.00;53.51
76590;BME280;65471;55.908;37.880;2023-03-01T10:05:59;99137.09;;;0.55;53.95
76590;BME280;65471;55.908;37.880;2023-03-01T10:09:16;99140.06;;;0.07;53.98
76590;BME280;65471;55.908;37.880;2023-03-01T10:11:22;99135.88;;;-0.33;54.72
76590;BME280;65471;55.908;37.880;2023-03-01T10:14:05;99140.41;;;-0.42;55.05
76590;BME280;65471;55.908;37.880;2023-03-01T10:16:51;99128.63;;;-0.40;54.97
76590;BME280;65471;55.908;37.880;2023-03-01T10:19:24;99128.41;;;-0.30;55.07
76590;BME280;65471;55.908;37.880;2023-03-01T10:21:55;99144.84;;;-0.35;54.49
76590;BME280;65471;55.908;37.880;2023-03-01T10:24:24;99124.66;;;-0.44;54.87
76590;BME280;65471;55.908;37.880;2023-03-01T10:29:26;99135.97;;;-0.50;54.75
76590;BME280;65471;55.908;37.880;2023-03-01T10:31:56;99142.66;;;-0.54;55.20
76590;BME280;65471;55.908;37.880;2023-03-01T10:34:32;99153.97;;;-0.60;54.87
76590;BME280;65471;55.908;37.880;2023-03-01T10:37:16;99139.91;;;-0.69;54.61
76590;BME280;65471;55.908;37.880;2023-03-01T10:40:01;99149.41;;;-0.75;54.85
76590;BME280;65471;55.908;37.880;2023-03-01T10:42:46;99151.88;;;-0.73;55.14
76590;BME280;65471;55.908;37.880;2023-03-01T10:47:45;99126.66;;;-1.09;55.48
76590;BME280;65471;55.908;37.880;2023-03-01T10:50:21;99156.69;;;-1.08;55.64
76590;BME280;65471;55.908;37.880;2023-03-01T10:53:03;99165.50;;;-1.24;55.85
76590;BME280;65471;55.908;37.880;2023-03-01T10:55:34;99151.94;;;-1.29;55.84
76590;BME280;65471;55.908;37.880;2023-03-01T11:03:24;99145.44;;;-0.79;55.83
76590;BME280;65471;55.908;37.880;2023-03-01T11:11:06;99121.47;;;-0.39;55.17
76590;BME280;65471;55.908;37.880;2023-03-01T11:13:34;99146.63;;;-0.04;53.98
76590;BME280;65471;55.908;37.880;2023-03-01T11:16:10;99142.31;;;0.33;54.19
76590;BME280;65471;55.908;37.880;2023-03-01T11:18:39;99154.78;;;0.48;53.15
76590;BME280;65471;55.908;37.880;2023-03-01T11:21:15;99152.50;;;0.45;52.66
76590;BME280;65471;55.908;37.880;2023-03-01T11:23:43;99144.97;;;0.33;52.73
76590;BME280;65471;55.908;37.880;2023-03-01T11:26:12;99125.66;;;0.16;52.99
76590;BME280;65471;55.908;37.880;2023-03-01T11:28:39;99147.41;;;0.20;52.60
76590;BME280;65471;55.908;37.880;2023-03-01T11:31:08;99152.88;;;0.04;52.65
76590;BME280;65471;55.908;37.880;2023-03-01T11:33:44;99148.63;;;-0.06;53.14
76590;BME280;65471;55.908;37.880;2023-03-01T11:38:43;99142.72;;;0.22;52.75
76590;BME280;65471;55.908;37.880;2023-03-01T11:43:58;99165.84;;;0.22;52.68
76590;BME280;65471;55.908;37.880;2023-03-01T11:52:09;99163.56;;;-0.28;53.43
76590;BME280;65471;55.908;37.880;2023-03-01T11:59:59;99162.78;;;-0.37;53.68
76590;BME280;65471;55.908;37.880;2023-03-01T12:02:56;99170.34;;;-0.48;53.42
76590;BME280;65471;55.908;37.880;2023-03-01T12:22:30;99169.81;;;-1.15;54.90
76590;BME280;65471;55.908;37.880;2023-03-01T12:30:32;99170.06;;;-1.01;55.16
76590;BME280;65471;55.908;37.880;2023-03-01T12:38:56;99169.09;;;-1.00;55.40
76590;BME280;65471;55.908;37.880;2023-03-01T12:50:04;99159.25;;;-0.92;55.40
76590;BME280;65471;55.908;37.880;2023-03-01T12:52:38;99153.78;;;-0.90;55.33
76590;BME280;65471;55.908;37.880;2023-03-01T12:57:47;99164.41;;;-0.98;54.91
76590;BME280;65471;55.908;37.880;2023-03-01T13:00:30;99163.31;;;-1.04;54.81
76590;BME280;65471;55.908;37.880;2023-03-01T13:08:14;99157.72;;;-1.26;55.06
76590;BME280;65471;55.908;37.880;2023-03-01T13:10:49;99165.84;;;-1.27;54.98
76590;BME280;65471;55.908;37.880;2023-03-01T13:15:47;99159.59;;;-1.43;54.63
76590;BME280;65471;55.908;37.880;2023-03-01T13:20:59;99154.63;;;-1.54;54.95
76590;BME280;65471;55.908;37.880;2023-03-01T13:23:34;99159.81;;;-1.52;55.40
76590;BME280;65471;55.908;37.880;2023-03-01T13:26:14;99162.28;;;-1.51;55.32
76590;BME280;65471;55.908;37.880;2023-03-01T13:28:53;99155.66;;;-1.47;55.55
76590;BME280;65471;55.908;37.880;2023-03-01T13:33:59;99154.16;;;-1.66;55.72
76590;BME280;65471;55.908;37.880;2023-03-01T13:38:58;99157.16;;;-1.52;55.83
76590;BME280;65471;55.908;37.880;2023-03-01T13:46:56;99160.63;;;-1.68;56.55
76590;BME280;65471;55.908;37.880;2023-03-01T13:49:31;99155.19;;;-1.75;56.32
76590;BME280;65471;55.908;37.880;2023-03-01T13:55:23;99152.38;;;-1.82;56.65
76590;BME280;65471;55.908;37.880;2023-03-01T13:57:56;99148.75;;;-1.89;56.96
76590;BME280;65471;55.908;37.880;2023-03-01T14:00:34;99155.19;;;-1.83;57.15
76590;BME280;65471;55.908;37.880;2023-03-01T14:03:08;99148.41;;;-1.78;56.92
76590;BME280;65471;55.908;37.880;2023-03-01T14:05:36;99136.94;;;-1.78;56.74
76590;BME280;65471;55.908;37.880;2023-03-01T14:08:22;99144.91;;;-1.70;56.50
76590;BME280;65471;55.908;37.880;2023-03-01T14:11:20;99153.69;;;-1.69;56.74
76590;BME280;65471;55.908;37.880;2023-03-01T14:19:31;99135.50;;;-1.81;56.57
76590;BME280;65471;55.908;37.880;2023-03-01T14:24:47;99125.53;;;-1.79;56.93
76590;BME280;65471;55.908;37.880;2023-03-01T14:27:16;99124.38;;;-1.76;56.49
76590;BME280;65471;55.908;37.880;2023-03-01T14:29:44;99125.88;;;-1.82;56.29
76590;BME280;65471;55.908;37.880;2023-03-01T14:32:22;99127.88;;;-1.92;56.07
76590;BME280;65471;55.908;37.880;2023-03-01T14:34:51;99125.72;;;-1.97;56.54
76590;BME280;65471;55.908;37.880;2023-03-01T14:39:47;99119.44;;;-2.04;56.23
76590;BME280;65471;55.908;37.880;2023-03-01T14:42:14;99124.25;;;-2.08;56.50
76590;BME280;65471;55.908;37.880;2023-03-01T14:44:47;99112.50;;;-2.13;56.93
76590;BME280;65471;55.908;37.880;2023-03-01T14:47:21;99105.06;;;-2.18;57.06
76590;BME280;65471;55.908;37.880;2023-03-01T14:49:56;99106.84;;;-2.10;57.08
76590;BME280;65471;55.908;37.880;2023-03-01T14:52:31;99119.59;;;-2.05;57.24
76590;BME280;65471;55.908;37.880;2023-03-01T14:55:03;99118.59;;;-2.13;57.36
76590;BME280;65471;55.908;37.880;2023-03-01T14:57:31;99113.66;;;-2.16;57.36
76590;BME280;65471;55.908;37.880;2023-03-01T15:00:00;99113.81;;;-2.17;57.59
76590;BME280;65471;55.908;37.880;2023-03-01T15:02:33;99108.69;;;-2.11;57.49
76590;BME280;65471;55.908;37.880;2023-03-01T15:05:02;99106.84;;;-2.10;57.79
76590;BME280;65471;55.908;37.880;2023-03-01T15:07:39;99113.81;;;-2.17;58.06
76590;BME280;65471;55.908;37.880;2023-03-01T15:10:17;99118.47;;;-2.19;57.79